Time;durP1;ratioP1;P1;durP2;ratioP2;P2;SDS_P1;SDS_P2;PMS_P1;PMS_P2;Temp;Humidity;BMP_temperature;BMP_pressure;BME280_temperature;BME280_humidity;BME280_pressure;Samples;Min_cycle;Max_cycle;Signal;HPM_P1;HPM_P2
2023/09/03 00:01:03;;;;;;;13.30;8.65;;;;;;;27.08;37.03;100473.37;1707471;83;21347;-79
2023/09/03 00:04:08;;;;;;;11.80;8.38;;;;;;;27.13;36.96;100480.38;1779524;80;21374;-79
2023/09/03 00:07:14;;;;;;;11.40;8.08;;;;;;;27.12;36.99;100473.09;1776957;80;21323;-78
2023/09/03 00:10:20;;;;;;;17.82;9.20;;;;;;;27.15;37.06;100473.09;1777177;79;21989;-79
2023/09/03 00:13:27;;;;;;;15.48;8.38;;;;;;;27.13;37.13;100473.36;1779028;79;21890;-79
2023/09/03 00:16:32;;;;;;;19.73;8.23;;;;;;;27.17;37.09;100468.87;1746529;81;22010;-79
2023/09/03 00:19:38;;;;;;;18.25;8.83;;;;;;;27.32;36.88;100472.77;1717071;82;21958;-79
2023/09/03 00:22:44;;;;;;;15.58;8.88;;;;;;;27.26;36.96;100478.41;1779486;80;21328;-79
2023/09/03 00:25:51;;;;;;;14.45;8.35;;;;;;;26.97;37.45;100474.48;1779810;80;21344;-79
2023/09/03 00:28:57;;;;;;;15.25;8.25;;;;;;;27.14;37.17;100475.03;1709571;83;21343;-79
2023/09/03 00:32:03;;;;;;;14.83;9.10;;;;;;;27.19;37.16;100473.63;1777494;80;21316;-78
2023/09/03 00:35:09;;;;;;;11.68;8.48;;;;;;;27.27;36.99;100475.03;1749284;79;21323;-79
2023/09/03 00:38:14;;;;;;;20.55;8.75;;;;;;;27.05;37.26;100469.67;1714167;83;21323;-79
2023/09/03 00:41:20;;;;;;;19.77;8.78;;;;;;;26.89;37.47;100475.03;1774339;80;21328;-79
2023/09/03 00:44:25;;;;;;;17.62;8.98;;;;;;;26.86;37.43;100475.02;1742403;81;21352;-78
2023/09/03 00:47:31;;;;;;;12.47;8.85;;;;;;;26.70;37.64;100477.55;1779760;80;21324;-80
2023/09/03 00:50:37;;;;;;;13.85;9.13;;;;;;;26.62;37.68;100477.53;1743710;81;21355;-80
2023/09/03 00:53:47;;;;;;;15.75;8.95;;;;;;;26.46;37.88;100471.63;1736905;81;21327;-79
2023/09/03 00:56:54;;;;;;;19.12;8.70;;;;;;;26.47;37.92;100478.36;1744489;81;21345;-79
2023/09/03 00:59:59;;;;;;;23.20;8.55;;;;;;;26.55;37.80;100472.77;1775088;80;21883;-80
2023/09/03 01:03:05;;;;;;;13.25;8.63;;;;;;;26.64;37.60;100474.47;1772449;80;21332;-80
2023/09/03 01:06:12;;;;;;;18.50;9.30;;;;;;;26.75;37.29;100468.57;1742895;81;21336;-80
2023/09/03 01:09:18;;;;;;;14.30;9.63;;;;;;;26.61;37.53;100463.23;1712153;83;21394;-80
2023/09/03 01:12:28;;;;;;;18.48;9.45;;;;;;;26.54;37.62;100461.28;1768706;80;21335;-80
2023/09/03 01:15:37;;;;;;;17.55;8.83;;;;;;;26.50;37.74;100460.98;1783841;80;21324;-80
2023/09/03 01:18:45;;;;;;;14.83;8.68;;;;;;;26.37;37.97;100459.24;1775853;80;21889;-79
2023/09/03 01:22:05;;;;;;;12.60;9.48;;;;;;;26.33;38.15;100456.14;1778102;80;21319;-79
2023/09/03 01:25:35;;;;;;;15.00;9.25;;;;;;;26.41;38.07;100453.37;1772277;80;21342;-78
2023/09/03 01:28:45;;;;;;;21.25;9.35;;;;;;;26.62;37.85;100457.05;1775357;80;21375;-80
2023/09/03 01:31:51;;;;;;;15.72;10.32;;;;;;;26.22;38.44;100451.64;1778451;80;21344;-79
2023/09/03 01:34:57;;;;;;;17.92;10.18;;;;;;;26.31;38.50;100443.54;1715068;83;21914;-79
2023/09/03 01:38:03;;;;;;;14.47;9.20;;;;;;;26.37;38.43;100446.63;1706961;83;21332;-79
2023/09/03 01:41:09;;;;;;;14.20;9.88;;;;;;;26.28;38.70;100448.28;1721937;82;21336;-79
2023/09/03 01:44:14;;;;;;;24.57;10.08;;;;;;;26.30;38.68;100446.03;1710290;82;21328;-79
2023/09/03 01:47:46;;;;;;;19.80;10.72;;;;;;;26.37;38.58;100448.02;1718911;82;21356;-79
2023/09/03 01:50:59;;;;;;;15.53;11.38;;;;;;;26.03;39.17;100448.51;1722850;82;21375;-78
2023/09/03 01:54:28;;;;;;;17.32;10.65;;;;;;;26.14;39.04;100446.57;1710454;83;21384;-78
2023/09/03 01:57:36;;;;;;;;;;;;;;;26.21;38.97;100444.36;1782382;80;21326;-79
2023/09/03 02:00:41;;;;;;;17.73;11.15;;;;;;;26.32;38.77;100453.63;1764259;80;20701;-80
2023/09/03 02:03:47;;;;;;;15.90;10.58;;;;;;;26.37;38.60;100446.63;1718389;83;21348;-80
2023/09/03 02:06:54;;;;;;;20.27;11.53;;;;;;;26.31;38.68;100444.37;1782622;80;21886;-79
2023/09/03 02:09:59;;;;;;;13.80;10.23;;;;;;;26.31;38.82;100449.14;1782479;80;21308;-80
2023/09/03 02:13:05;;;;;;;21.57;10.28;;;;;;;26.40;38.76;100450.28;1781414;80;21327;-79
2023/09/03 02:16:10;;;;;;;30.57;10.45;;;;;;;26.45;38.63;100446.12;1778361;80;21323;-80
2023/09/03 02:19:16;;;;;;;16.95;10.10;;;;;;;26.34;38.77;100443.80;1778053;80;21630;-80
2023/09/03 02:22:22;;;;;;;17.10;10.93;;;;;;;26.14;39.07;100441.80;1784490;80;21360;-80
2023/09/03 02:25:27;;;;;;;14.45;10.10;;;;;;;26.15;38.98;100453.29;1774783;80;21339;-79
2023/09/03 02:28:35;;;;;;;14.47;10.03;;;;;;;25.99;39.37;100445.97;1713727;83;21933;-80
2023/09/03 02:31:41;;;;;;;19.98;10.75;;;;;;;25.73;39.75;100449.19;1778649;80;21661;-79
2023/09/03 02:34:47;;;;;;;16.70;10.43;;;;;;;25.68;39.92;100445.80;1774891;80;21327;-80
2023/09/03 02:37:52;;;;;;;16.70;10.70;;;;;;;25.80;39.71;100451.78;1767854;80;21335;-79
2023/09/03 02:40:58;;;;;;;11.80;9.98;;;;;;;25.71;39.86;100445.27;1714503;83;22612;-79
2023/09/03 02:44:07;;;;;;;14.07;10.58;;;;;;;25.60;40.01;100453.35;1743207;81;21903;-78
2023/09/03 02:47:13;;;;;;;14.63;10.10;;;;;;;25.70;40.06;100452.55;1716713;83;21338;-78
2023/09/03 02:50:19;;;;;;;17.37;10.50;;;;;;;25.89;39.74;100450.14;1699279;83;21344;-78
2023/09/03 02:53:24;;;;;;;20.80;11.33;;;;;;;25.89;39.79;100452.95;1718321;83;21348;-78
2023/09/03 02:56:30;;;;;;;21.35;11.10;;;;;;;26.04;39.57;100454.39;1717880;83;21344;-78
2023/09/03 02:59:37;;;;;;;15.98;10.80;;;;;;;26.17;39.30;100456.68;1716305;83;21352;-78
2023/09/03 03:02:42;;;;;;;14.33;10.80;;;;;;;26.30;39.10;100454.45;1714235;83;21330;-78
2023/09/03 03:05:48;;;;;;;15.38;10.60;;;;;;;26.20;39.17;100456.11;1711461;83;21359;-78
2023/09/03 03:08:55;;;;;;;14.35;10.55;;;;;;;26.39;38.83;100457.83;1776357;80;21337;-79
2023/09/03 03:12:00;;;;;;;17.75;11.50;;;;;;;26.41;38.83;100464.58;1716413;83;21376;-78
2023/09/03 03:15:07;;;;;;;18.92;11.28;;;;;;;26.27;39.02;100463.44;1773482;80;21328;-79
2023/09/03 03:18:12;;;;;;;20.80;11.57;;;;;;;26.16;39.20;100466.74;1720254;83;21352;-79
2023/09/03 03:21:23;;;;;;;19.30;12.10;;;;;;;26.10;39.38;100478.51;1786659;79;21426;-79
2023/09/03 03:24:29;;;;;;;16.65;11.40;;;;;;;26.36;39.09;100471.59;1710430;83;21335;-79
2023/09/03 03:27:37;;;;;;;17.90;10.20;;;;;;;26.40;39.17;100465.70;1706786;83;21925;-79
2023/09/03 03:30:43;;;;;;;24.60;11.48;;;;;;;26.03;39.89;100458.88;1722647;83;21328;-79
2023/09/03 03:33:51;;;;;;;20.65;10.95;;;;;;;26.21;39.56;100459.22;1714195;83;21352;-79
2023/09/03 03:36:56;;;;;;;15.38;10.90;;;;;;;26.04;39.74;100457.20;1720690;83;21910;-79
2023/09/03 03:40:06;;;;;;;16.15;10.82;;;;;;;26.04;40.05;100461.40;1720140;82;21324;-79
2023/09/03 03:43:11;;;;;;;17.60;11.73;;;;;;;26.43;39.63;100460.95;1721780;82;21344;-79
2023/09/03 03:46:17;;;;;;;20.77;11.40;;;;;;;26.66;39.23;100461.83;1720559;82;21438;-79
2023/09/03 03:49:23;;;;;;;21.45;10.75;;;;;;;26.60;39.41;100461.55;1782745;79;21316;-79
2023/09/03 03:52:29;;;;;;;18.17;11.22;;;;;;;26.19;40.22;100460.03;1712987;83;21355;-79
2023/09/03 03:55:35;;;;;;;15.45;11.05;;;;;;;26.55;39.80;100455.10;1714048;82;22010;-79
2023/09/03 03:58:43;;;;;;;15.13;10.50;;;;;;;26.93;39.18;100455.11;1710763;82;21371;-79
2023/09/03 04:01:49;;;;;;;17.07;10.55;;;;;;;26.99;39.13;100460.42;1716433;83;21362;-79
2023/09/03 04:04:57;;;;;;;15.53;10.08;;;;;;;27.11;38.98;100457.37;1721427;83;21352;-79
2023/09/03 04:08:04;;;;;;;18.87;10.90;;;;;;;27.35;38.66;100459.58;1712728;83;21335;-79
2023/09/03 04:11:14;;;;;;;19.92;11.73;;;;;;;27.42;38.61;100453.09;1726175;83;21344;-79
2023/09/03 04:14:20;;;;;;;15.43;10.88;;;;;;;27.70;38.10;100452.43;1700383;82;21378;-79
2023/09/03 04:17:25;;;;;;;16.30;11.60;;;;;;;27.82;37.95;100445.70;1710818;83;21367;-79
2023/09/03 04:20:31;;;;;;;17.95;11.12;;;;;;;27.76;38.16;100435.88;1713374;83;21344;-79
2023/09/03 04:23:36;;;;;;;15.03;10.05;;;;;;;27.76;38.15;100437.86;1713010;83;21366;-79
2023/09/03 04:26:42;;;;;;;18.48;10.70;;;;;;;27.89;38.18;100447.61;1774806;80;21327;-79
2023/09/03 04:29:49;;;;;;;14.65;10.43;;;;;;;27.72;38.39;100453.61;1775161;80;21563;-79
2023/09/03 04:32:56;;;;;;;12.40;8.98;;;;;;;27.90;38.15;100449.28;1775100;80;21351;-79
2023/09/03 04:36:07;;;;;;;12.20;8.73;;;;;;;27.73;38.42;100454.72;1743513;82;21355;-79
2023/09/03 04:39:11;;;;;;;;;;;;;;;27.73;38.52;100458.92;1705541;82;21945;-79
2023/09/03 04:42:16;;;;;;;15.35;9.20;;;;;;;27.66;38.67;100449.91;1717926;83;20309;-79
2023/09/03 04:45:22;;;;;;;18.62;8.58;;;;;;;27.92;38.43;100453.51;1717224;83;22664;-79
2023/09/03 04:48:27;;;;;;;20.05;8.68;;;;;;;28.40;37.71;100452.98;1715452;83;21351;-79
2023/09/03 04:51:33;;;;;;;13.20;8.73;;;;;;;28.57;37.51;100453.44;1781355;80;21351;-79
2023/09/03 04:54:39;;;;;;;12.70;8.55;;;;;;;28.77;37.09;100451.86;1781113;80;21351;-79
2023/09/03 04:57:45;;;;;;;11.70;8.53;;;;;;;29.19;36.51;100456.02;1746384;81;21412;-79
2023/09/03 05:00:51;;;;;;;14.28;8.83;;;;;;;29.09;36.57;100451.90;1718199;82;21354;-79
2023/09/03 05:03:58;;;;;;;14.18;8.73;;;;;;;29.00;36.89;100450.28;1714665;82;21382;-80
2023/09/03 05:07:05;;;;;;;14.35;8.45;;;;;;;29.26;36.49;100449.45;1713974;82;21672;-79
2023/09/03 05:10:13;;;;;;;16.45;9.68;;;;;;;29.55;36.04;100447.23;1717719;83;21336;-80
2023/09/03 05:13:18;;;;;;;14.05;9.08;;;;;;;29.68;35.89;100449.88;1709806;82;21338;-79
2023/09/03 05:16:23;;;;;;;20.45;8.88;;;;;;;29.75;35.77;100450.37;1743335;81;21323;-79
2023/09/03 05:19:28;;;;;;;11.38;8.45;;;;;;;29.76;35.96;100444.42;1760900;80;21379;-79
2023/09/03 05:22:34;;;;;;;15.65;8.65;;;;;;;29.72;35.95;100452.37;1759696;80;23724;-79
2023/09/03 05:25:39;;;;;;;12.15;8.20;;;;;;;29.59;36.33;100450.27;1775825;80;21324;-79
2023/09/03 05:28:46;;;;;;;11.45;8.25;;;;;;;29.83;35.79;100451.12;1775994;79;21320;-79
2023/09/03 05:31:52;;;;;;;13.15;8.45;;;;;;;30.09;35.65;100451.60;1766112;80;21323;-79
2023/09/03 05:34:58;;;;;;;11.53;8.15;;;;;;;30.33;35.22;100448.75;1784149;80;21899;-79
2023/09/03 05:38:03;;;;;;;14.30;9.05;;;;;;;30.29;35.26;100450.50;1783660;80;21903;-79
2023/09/03 05:41:09;;;;;;;11.65;8.08;;;;;;;30.44;35.00;100455.07;1720524;83;21340;-79
2023/09/03 05:44:16;;;;;;;14.38;9.48;;;;;;;30.51;35.02;100452.14;1715941;83;21926;-79
2023/09/03 05:47:20;;;;;;;14.28;8.93;;;;;;;30.77;34.84;100448.38;1718735;82;21332;-79
2023/09/03 05:50:28;;;;;;;15.93;8.18;;;;;;;30.99;34.61;100455.34;1706250;82;21339;-79
2023/09/03 05:53:35;;;;;;;15.15;8.05;;;;;;;31.19;34.43;100450.73;1713206;82;21335;-79
2023/09/03 05:56:45;;;;;;;11.95;8.18;;;;;;;31.14;34.35;100442.92;1739004;81;21409;-79
2023/09/03 05:59:52;;;;;;;11.93;7.85;;;;;;;31.32;34.28;100438.39;1744268;81;21336;-79
2023/09/03 06:02:59;;;;;;;19.90;7.78;;;;;;;31.44;34.15;100436.74;1699796;83;21359;-79
2023/09/03 06:06:12;;;;;;;13.85;6.37;;;;;;;31.59;33.61;100442.66;1720082;83;21368;-79
2023/09/03 06:09:19;;;;;;;14.60;7.65;;;;;;;31.48;33.67;100434.13;1718966;82;21352;-79
2023/09/03 06:12:24;;;;;;;12.50;6.42;;;;;;;31.59;33.67;100434.17;1709249;82;21347;-79
2023/09/03 06:15:29;;;;;;;13.98;6.45;;;;;;;31.78;32.69;100439.14;1748409;81;21687;-79
2023/09/03 06:18:36;;;;;;;10.93;6.22;;;;;;;31.86;33.11;100434.78;1718132;83;21367;-78
2023/09/03 06:21:42;;;;;;;11.05;6.40;;;;;;;31.93;32.68;100427.27;1718649;83;21950;-80
2023/09/03 06:24:48;;;;;;;15.70;6.92;;;;;;;32.02;32.68;100426.78;1714277;83;21351;-79
2023/09/03 06:27:54;;;;;;;17.02;6.85;;;;;;;32.03;32.76;100428.45;1713196;83;21693;-79
2023/09/03 06:31:01;;;;;;;9.93;5.42;;;;;;;32.42;32.48;100432.67;1707105;82;21375;-79
2023/09/03 06:34:08;;;;;;;11.85;5.62;;;;;;;32.65;31.57;100430.13;1719377;82;21356;-79
2023/09/03 06:37:13;;;;;;;6.80;5.10;;;;;;;32.68;31.36;100429.49;1708134;83;21933;-79
2023/09/03 06:40:18;;;;;;;11.60;5.50;;;;;;;32.43;31.98;100431.55;1719556;82;21324;-79
2023/09/03 06:43:24;;;;;;;7.55;4.87;;;;;;;32.41;31.84;100435.26;1714574;83;21381;-79
2023/09/03 06:46:29;;;;;;;9.75;5.37;;;;;;;32.48;31.71;100422.93;1782991;79;21360;-79
2023/09/03 06:49:35;;;;;;;6.08;4.33;;;;;;;32.74;31.35;100422.53;1773960;80;21874;-79
2023/09/03 06:52:43;;;;;;;5.62;5.03;;;;;;;33.05;30.59;100421.20;1778158;80;21343;-79
2023/09/03 06:55:52;;;;;;;8.20;4.97;;;;;;;33.26;30.62;100425.72;1741284;81;21319;-79
2023/09/03 06:58:59;;;;;;;10.70;5.17;;;;;;;33.14;30.44;100422.67;1705982;83;21336;-79
2023/09/03 07:02:05;;;;;;;8.18;4.47;;;;;;;33.48;30.05;100422.03;1713986;83;21910;-79
2023/09/03 07:05:14;;;;;;;8.45;4.97;;;;;;;33.64;29.42;100419.57;1710686;82;21890;-79
2023/09/03 07:08:18;;;;;;;7.37;4.22;;;;;;;33.83;29.39;100423.00;1706083;83;21331;-79
2023/09/03 07:11:23;;;;;;;6.85;4.70;;;;;;;34.02;28.91;100417.65;1711786;83;21327;-79
2023/09/03 07:14:29;;;;;;;13.72;5.22;;;;;;;33.88;29.09;100423.98;1715526;82;21343;-80
2023/09/03 07:17:36;;;;;;;9.35;5.05;;;;;;;33.99;29.42;100416.88;1717369;83;21339;-80
2023/09/03 07:20:42;;;;;;;10.18;4.47;;;;;;;33.71;29.75;100407.18;1749423;81;21332;-80
2023/09/03 07:23:48;;;;;;;8.35;4.90;;;;;;;33.75;29.42;100416.70;1730944;82;21347;-79
2023/09/03 07:26:55;;;;;;;6.62;4.45;;;;;;;33.90;29.45;100408.31;1780521;79;21296;-79
2023/09/03 07:30:04;;;;;;;9.30;4.97;;;;;;;33.87;29.67;100406.13;1714771;83;21367;-79
2023/09/03 07:33:09;;;;;;;7.83;4.58;;;;;;;34.07;29.56;100407.55;1770649;80;21332;-79
2023/09/03 07:36:19;;;;;;;6.42;4.28;;;;;;;34.00;29.23;100402.94;1746452;81;21324;-80
2023/09/03 07:39:24;;;;;;;6.05;3.60;;;;;;;34.05;29.79;100399.94;1712139;82;21367;-79
2023/09/03 07:42:29;;;;;;;9.25;4.53;;;;;;;34.15;29.03;100396.77;1728328;82;21352;-79
2023/09/03 07:45:36;;;;;;;9.23;3.98;;;;;;;34.32;28.31;100399.63;1711395;83;21658;-80
2023/09/03 07:48:41;;;;;;;9.10;3.98;;;;;;;34.20;28.55;100399.45;1781789;80;21329;-80
2023/09/03 07:51:47;;;;;;;6.15;4.28;;;;;;;34.22;28.56;100385.77;1781983;80;21867;-80
2023/09/03 07:54:54;;;;;;;7.47;3.70;;;;;;;34.21;28.31;100405.40;1783707;80;21331;-79
2023/09/03 07:58:00;;;;;;;5.50;3.22;;;;;;;34.15;28.76;100392.52;1710781;82;21363;-80
2023/09/03 08:01:06;;;;;;;8.43;3.95;;;;;;;34.08;27.94;100401.54;1706784;82;21384;-79
2023/09/03 08:04:12;;;;;;;10.23;4.17;;;;;;;34.15;27.98;100396.77;1727247;82;21380;-79
2023/09/03 08:07:17;;;;;;;8.30;3.75;;;;;;;34.56;28.12;100401.99;1715199;82;21347;-80
2023/09/03 08:10:23;;;;;;;7.15;3.90;;;;;;;34.50;27.87;100392.58;1785131;79;21331;-80
2023/09/03 08:13:29;;;;;;;6.53;4.58;;;;;;;34.66;27.48;100385.78;1779335;80;21374;-79
2023/09/03 08:16:35;;;;;;;7.50;4.28;;;;;;;34.87;27.62;100383.92;1778067;80;21352;-79
2023/09/03 08:19:40;;;;;;;8.98;4.28;;;;;;;34.82;27.53;100386.35;1766140;80;21705;-79
2023/09/03 08:22:46;;;;;;;8.48;4.15;;;;;;;34.82;27.46;100392.63;1782667;80;21421;-79
2023/09/03 08:25:52;;;;;;;8.85;3.55;;;;;;;34.78;27.44;100384.52;1782483;80;21344;-79
2023/09/03 08:29:00;;;;;;;8.28;4.25;;;;;;;34.74;27.27;100377.25;1775041;80;21359;-79
2023/09/03 08:32:06;;;;;;;6.47;3.70;;;;;;;34.38;27.64;100383.84;1779429;80;21986;-79
2023/09/03 08:35:11;;;;;;;6.58;3.60;;;;;;;34.58;27.22;100387.45;1787866;79;21331;-79
2023/09/03 08:38:16;;;;;;;4.72;3.50;;;;;;;34.66;27.24;100380.94;1777498;80;21335;-79
2023/09/03 08:41:23;;;;;;;6.70;3.72;;;;;;;35.06;26.82;100376.45;1707070;83;21923;-79
2023/09/03 08:44:45;;;;;;;10.45;4.05;;;;;;;35.42;26.27;100374.54;1774704;80;21340;-78
2023/09/03 08:47:50;;;;;;;5.62;2.70;;;;;;;35.22;26.47;100368.20;1769654;80;21362;-78
2023/09/03 08:50:56;;;;;;;6.28;3.22;;;;;;;34.97;26.05;100365.70;1777498;80;21350;-78
2023/09/03 08:54:03;;;;;;;9.78;2.95;;;;;;;35.14;26.06;100375.57;1783798;80;21332;-79
2023/09/03 08:57:09;;;;;;;4.58;2.70;;;;;;;35.18;25.36;100369.45;1773843;80;21319;-78
2023/09/03 09:00:16;;;;;;;10.65;2.60;;;;;;;35.88;24.68;100361.42;1773084;80;21311;-79
2023/09/03 09:03:23;;;;;;;5.53;2.90;;;;;;;35.22;24.82;100370.45;1778358;80;21312;-79
2023/09/03 09:06:29;;;;;;;5.17;3.30;;;;;;;35.24;24.62;100380.05;1768725;80;22140;-78
2023/09/03 09:09:38;;;;;;;6.35;3.30;;;;;;;34.97;25.03;100365.70;1783481;80;21344;-79
2023/09/03 09:12:59;;;;;;;7.67;2.80;;;;;;;35.05;25.18;100367.66;1777701;80;21875;-78
2023/09/03 09:16:06;;;;;;;6.15;2.83;;;;;;;35.03;24.80;100358.66;1777266;80;21326;-78
2023/09/03 09:19:12;;;;;;;5.87;2.70;;;;;;;34.65;25.46;100365.06;1778774;80;21344;-79
2023/09/03 09:22:18;;;;;;;4.55;3.08;;;;;;;34.78;25.58;100361.80;1742877;81;21340;-79
2023/09/03 09:25:29;;;;;;;5.70;3.02;;;;;;;34.92;25.25;100357.33;1776318;80;21657;-78
2023/09/03 09:28:34;;;;;;;4.00;2.80;;;;;;;35.06;25.26;100367.34;1774809;80;21288;-79
2023/09/03 09:31:41;;;;;;;5.47;2.85;;;;;;;35.24;24.68;100358.73;1782976;80;21395;-78
2023/09/03 09:34:50;;;;;;;4.47;2.98;;;;;;;35.31;24.62;100361.30;1771355;80;21347;-79
2023/09/03 09:37:57;;;;;;;8.80;3.40;;;;;;;35.12;24.88;100361.47;1768306;80;21331;-79
2023/09/03 09:41:03;;;;;;;5.78;3.72;;;;;;;35.17;25.05;100359.27;1776204;80;21331;-79
2023/09/03 09:44:10;;;;;;;4.90;3.15;;;;;;;35.48;24.82;100360.42;1716489;82;21352;-79
2023/09/03 09:47:25;;;;;;;8.65;3.67;;;;;;;35.66;24.38;100359.72;1726156;82;21427;-79
2023/09/03 09:50:44;;;;;;;7.15;3.37;;;;;;;35.66;24.88;100359.72;1708391;82;21355;-78
2023/09/03 09:53:50;;;;;;;3.67;3.12;;;;;;;35.72;24.94;100359.78;1714137;83;21338;-79
2023/09/03 09:56:55;;;;;;;7.50;3.55;;;;;;;35.86;24.93;100362.97;1685846;82;21378;-79
2023/09/03 10:00:04;;;;;;;9.63;4.08;;;;;;;35.59;24.78;100358.02;1714054;83;21372;-79
2023/09/03 10:03:11;;;;;;;7.87;3.98;;;;;;;35.54;24.92;100351.94;1779682;80;21351;-79
2023/09/03 10:06:17;;;;;;;7.62;3.70;;;;;;;35.67;24.89;100341.49;1718750;83;21345;-79
2023/09/03 10:09:22;;;;;;;7.95;3.85;;;;;;;35.74;24.72;100340.34;1712267;82;21335;-79
2023/09/03 10:12:27;;;;;;;9.18;3.75;;;;;;;35.56;25.04;100354.42;1718582;83;21911;-79
2023/09/03 10:15:34;;;;;;;6.33;3.60;;;;;;;35.47;24.77;100347.95;1718117;83;21935;-78
2023/09/03 10:18:41;;;;;;;6.28;3.25;;;;;;;35.26;24.43;100342.18;1705179;83;21336;-78
2023/09/03 10:21:47;;;;;;;5.20;3.45;;;;;;;35.03;25.32;100347.28;1725587;82;21413;-79
2023/09/03 10:25:09;;;;;;;5.42;3.20;;;;;;;35.09;24.97;100324.60;1716063;83;21381;-78
2023/09/03 10:28:16;;;;;;;6.90;3.85;;;;;;;35.25;24.97;100328.56;1718218;83;21395;-79
2023/09/03 10:31:21;;;;;;;10.32;4.17;;;;;;;35.40;25.31;100323.47;1781146;80;21324;-78
2023/09/03 10:34:29;;;;;;;9.20;4.28;;;;;;;35.46;25.29;100330.06;1751968;80;21359;-79
2023/09/03 10:37:49;;;;;;;9.08;4.50;;;;;;;35.50;25.27;100331.63;1778340;80;21319;-78
2023/09/03 10:40:54;;;;;;;10.10;4.62;;;;;;;35.29;25.18;100323.86;1782660;80;21342;-78
2023/09/03 10:44:00;;;;;;;10.30;3.87;;;;;;;35.28;24.94;100322.17;1783687;80;21351;-78
2023/09/03 10:47:11;;;;;;;9.18;3.65;;;;;;;35.11;25.23;100323.69;1774683;80;21323;-79
2023/09/03 10:50:18;;;;;;;7.75;3.95;;;;;;;35.27;25.04;100308.31;1784823;80;21839;-78
2023/09/03 10:53:46;;;;;;;6.22;3.67;;;;;;;35.46;24.75;100315.01;1782886;80;21877;-78
2023/09/03 10:57:15;;;;;;;6.00;4.17;;;;;;;35.41;25.08;100304.63;1745201;81;21337;-79
2023/09/03 11:00:26;;;;;;;9.25;3.87;;;;;;;35.58;24.69;100306.58;1715798;83;21323;-78
2023/09/03 11:03:32;;;;;;;5.65;3.27;;;;;;;35.58;24.50;100313.69;1754611;79;21351;-78
2023/09/03 11:06:42;;;;;;;4.30;3.65;;;;;;;35.58;24.79;100307.41;1783311;80;21327;-78
2023/09/03 11:09:48;;;;;;;6.95;3.92;;;;;;;35.26;24.75;100304.63;1784354;80;21972;-78
2023/09/03 11:12:55;;;;;;;6.00;3.52;;;;;;;35.49;24.12;100313.73;1710869;83;21339;-79
2023/09/03 11:16:02;;;;;;;6.85;3.80;;;;;;;35.48;24.43;100304.14;1746524;81;21336;-79
2023/09/03 11:19:08;;;;;;;10.05;3.98;;;;;;;35.73;24.29;100301.70;1715993;82;21896;-79
2023/09/03 11:22:13;;;;;;;6.95;3.35;;;;;;;35.70;24.35;100312.93;1720189;82;21396;-78
2023/09/03 11:25:18;;;;;;;6.80;3.33;;;;;;;35.96;24.27;100297.13;1701735;83;21343;-79
2023/09/03 11:28:24;;;;;;;3.67;3.05;;;;;;;36.19;23.34;100288.47;1718396;82;21367;-79
2023/09/03 11:31:31;;;;;;;6.37;3.60;;;;;;;36.01;23.42;100301.19;1786380;79;21366;-79
2023/09/03 11:34:36;;;;;;;8.70;3.25;;;;;;;36.21;23.22;100291.78;1765415;80;21371;-78
2023/09/03 11:37:43;;;;;;;4.20;3.30;;;;;;;36.22;23.68;100283.48;1777394;80;21402;-78
2023/09/03 11:40:48;;;;;;;4.03;2.95;;;;;;;36.47;23.45;100291.58;1775296;80;21383;-78
2023/09/03 11:43:55;;;;;;;13.78;3.02;;;;;;;36.49;23.09;100284.92;1742360;81;21388;-79
2023/09/03 11:47:10;;;;;;;8.48;3.08;;;;;;;36.60;22.43;100287.55;1719690;82;21352;-79
2023/09/03 11:50:18;;;;;;;8.08;2.98;;;;;;;36.46;22.66;100287.63;1715983;83;21311;-79
2023/09/03 11:53:24;;;;;;;9.67;2.77;;;;;;;36.43;22.86;100282.66;1708399;83;21332;-78
2023/09/03 11:56:32;;;;;;;8.08;2.90;;;;;;;36.25;23.06;100279.94;1716045;83;21344;-78
2023/09/03 11:59:38;;;;;;;4.20;2.95;;;;;;;36.47;22.43;100278.76;1713698;82;22200;-79
2023/09/03 12:02:44;;;;;;;4.83;3.27;;;;;;;36.14;22.61;100282.16;1782541;79;21885;-78
2023/09/03 12:05:52;;;;;;;4.55;2.90;;;;;;;36.01;22.46;100293.48;1719236;82;21365;-79
2023/09/03 12:08:58;;;;;;;7.42;2.83;;;;;;;35.96;22.41;100288.59;1781885;79;21343;-78
2023/09/03 12:12:03;;;;;;;12.50;2.92;;;;;;;35.71;22.60;100296.09;1712847;83;21343;-79
2023/09/03 12:15:09;;;;;;;3.33;2.85;;;;;;;35.55;22.80;100299.55;1718801;82;21331;-79
2023/09/03 12:18:17;;;;;;;5.72;2.80;;;;;;;35.55;22.59;100283.08;1700442;82;21923;-79
2023/09/03 12:21:23;;;;;;;5.00;2.70;;;;;;;35.97;22.67;100276.02;1778695;79;21323;-79
2023/09/03 12:24:34;;;;;;;10.93;3.10;;;;;;;35.94;22.49;100276.67;1783662;80;21320;-78
2023/09/03 12:27:56;;;;;;;10.13;3.10;;;;;;;35.78;22.64;100285.02;1783707;80;21336;-79
2023/09/03 12:31:07;;;;;;;6.20;2.30;;;;;;;35.90;21.93;100282.25;1713082;83;21346;-78
2023/09/03 12:34:12;;;;;;;8.45;2.50;;;;;;;36.11;21.65;100265.17;1771870;80;21914;-79
2023/09/03 12:37:17;;;;;;;4.50;2.70;;;;;;;36.19;22.04;100267.71;1714062;83;21846;-78
2023/09/03 12:40:23;;;;;;;4.83;2.77;;;;;;;36.45;21.61;100264.02;1707747;82;21331;-78
2023/09/03 12:43:34;;;;;;;6.03;2.80;;;;;;;36.40;21.61;100257.69;1715918;83;21943;-78
2023/09/03 12:46:43;;;;;;;11.00;2.65;;;;;;;36.14;21.76;100258.80;1696548;82;21354;-79
2023/09/03 12:49:49;;;;;;;5.22;2.98;;;;;;;35.78;21.90;100259.41;1708376;82;21327;-79
2023/09/03 12:52:56;;;;;;;4.42;2.80;;;;;;;35.95;21.65;100258.44;1722661;82;21343;-78
2023/09/03 12:56:02;;;;;;;4.30;2.90;;;;;;;36.00;21.64;100258.27;1716315;83;21327;-79
2023/09/03 12:59:08;;;;;;;3.80;2.80;;;;;;;35.68;21.79;100254.14;1764143;80;21328;-79
2023/09/03 13:02:14;;;;;;;5.12;3.00;;;;;;;35.73;21.99;100261.05;1772964;80;21315;-78
2023/09/03 13:05:21;;;;;;;8.78;3.12;;;;;;;36.02;21.79;100249.59;1782730;80;21359;-78
2023/09/03 13:08:27;;;;;;;5.00;3.25;;;;;;;35.99;21.86;100247.44;1775144;80;21407;-78
2023/09/03 13:11:32;;;;;;;4.33;2.95;;;;;;;35.46;22.52;100249.61;1748748;82;21344;-79
2023/09/03 13:14:38;;;;;;;6.67;3.37;;;;;;;35.98;21.87;100243.53;1773585;80;21907;-79
2023/09/03 13:17:44;;;;;;;6.10;2.92;;;;;;;35.55;22.37;100245.52;1771377;80;21351;-79
2023/09/03 13:20:50;;;;;;;4.83;2.87;;;;;;;35.55;22.47;100246.11;1778156;80;21324;-79
2023/09/03 13:23:56;;;;;;;4.78;3.02;;;;;;;35.34;22.55;100241.21;1777218;79;21323;-78
2023/09/03 13:27:01;;;;;;;6.72;2.62;;;;;;;35.66;21.96;100253.05;1774194;80;21300;-78
2023/09/03 13:30:06;;;;;;;4.42;2.50;;;;;;;35.59;21.86;100232.87;1776287;80;21327;-79
2023/09/03 13:33:12;;;;;;;4.78;3.08;;;;;;;35.56;22.24;100220.75;1773343;80;21390;-79
2023/09/03 13:36:19;;;;;;;4.53;2.95;;;;;;;35.95;21.72;100219.47;1767313;80;21329;-78
2023/09/03 13:39:25;;;;;;;3.55;2.80;;;;;;;35.94;21.85;100216.91;1767401;80;21347;-78
2023/09/03 13:42:30;;;;;;;4.40;2.90;;;;;;;36.01;21.82;100214.38;1779427;80;21348;-79
2023/09/03 13:45:36;;;;;;;5.08;3.08;;;;;;;35.68;21.84;100204.36;1775448;80;21323;-79
2023/09/03 13:48:42;;;;;;;6.75;3.30;;;;;;;35.76;21.96;100205.71;1783252;80;21899;-78
2023/09/03 13:51:48;;;;;;;4.53;2.77;;;;;;;35.73;21.94;100205.56;1774832;80;21383;-79
2023/09/03 13:54:58;;;;;;;7.65;3.22;;;;;;;35.66;22.13;100210.97;1758146;80;21346;-79
2023/09/03 13:58:05;;;;;;;6.00;2.90;;;;;;;35.57;22.02;100202.50;1781486;80;21319;-79
2023/09/03 14:01:16;;;;;;;5.08;3.22;;;;;;;35.38;22.31;100202.12;1716041;83;21358;-78
2023/09/03 14:04:23;;;;;;;9.60;3.47;;;;;;;35.55;21.84;100200.61;1765199;79;21871;-79
2023/09/03 14:07:29;;;;;;;3.33;2.60;;;;;;;35.52;21.81;100198.45;1749621;81;21384;-79
2023/09/03 14:10:35;;;;;;;8.85;2.80;;;;;;;35.58;21.71;100189.37;1772667;80;21370;-80
2023/09/03 14:13:43;;;;;;;5.67;3.00;;;;;;;35.65;21.73;100180.27;1780718;80;21684;-80
2023/09/03 14:16:53;;;;;;;8.75;3.58;;;;;;;35.63;21.90;100196.04;1805753;78;21314;-79
2023/09/03 14:19:58;;;;;;;4.87;3.10;;;;;;;35.58;21.84;100185.70;1745622;81;21343;-80
2023/09/03 14:23:19;;;;;;;5.08;2.47;;;;;;;35.50;21.85;100189.44;1811307;78;21889;-79